Glenola, North Carolina
Current Conditions -  °F | °C
As of 4:54 PM on Tuesday 21 Oct 2014 (Local Time) from KINT Reporting Station
Clear Clear  
Wind Chill: 68°   Ceiling: Unl
Heat Index: 68°   Visibility: 10mi
Dew Point: 40°   Wind: 14mph
Humidity: 36%   Direction: 320°NW
Pressure: 29.88"   Gusts: 21mph
Location:  35.9808°N, 80.1272°W
Report Text: KINT 212054Z 32012G18KT 10SM CLR 20/04 A2988 RMK AO2 SLP113 T02000044 55002
Loading
Personal Weather Stations






























Interactive Weather Map
Tropical Storm Tracking
New forecast layout! Learn more

10-Day Weather Forecast

Advertisements
Track Severe Weather on mobile